createdAt,value
2023-04-01T00:00:09.948Z,1001.6
2023-04-01T00:01:09.960Z,1001.57
2023-04-01T00:02:10.008Z,1001.6
2023-04-01T00:03:10.015Z,1001.6
2023-04-01T00:04:09.974Z,1001.58
2023-04-01T00:05:09.964Z,1001.55
2023-04-01T00:06:09.975Z,1001.6
2023-04-01T00:07:09.980Z,1001.6
2023-04-01T00:08:09.971Z,1001.58
2023-04-01T00:09:09.986Z,1001.56
2023-04-01T00:10:09.969Z,1001.6
2023-04-01T00:11:09.969Z,1001.58
2023-04-01T00:12:09.973Z,1001.59
2023-04-01T00:13:09.963Z,1001.6
2023-04-01T00:14:09.961Z,1001.57
2023-04-01T00:15:09.975Z,1001.55
2023-04-01T00:16:20.404Z,1001.55
2023-04-01T00:17:10.155Z,1001.58
2023-04-01T00:18:09.971Z,1001.59
2023-04-01T00:19:09.955Z,1001.58
2023-04-01T00:20:09.961Z,1001.61
2023-04-01T00:21:09.984Z,1001.59
2023-04-01T00:22:09.988Z,1001.61
2023-04-01T00:23:09.959Z,1001.56
2023-04-01T00:24:09.969Z,1001.58
2023-04-01T00:25:09.958Z,1001.59
2023-04-01T00:26:09.969Z,1001.59
2023-04-01T00:27:09.983Z,1001.58
2023-04-01T00:28:09.965Z,1001.59
2023-04-01T00:29:09.960Z,1001.59
2023-04-01T00:30:09.968Z,1001.58
2023-04-01T00:31:10.026Z,1001.57
2023-04-01T00:32:09.985Z,1001.62
2023-04-01T00:33:10.027Z,1001.58
2023-04-01T00:34:09.965Z,1001.6
2023-04-01T00:35:09.970Z,1001.6
2023-04-01T00:36:10.048Z,1001.6
2023-04-01T00:37:09.989Z,1001.65
2023-04-01T00:38:09.961Z,1001.64
2023-04-01T00:39:09.963Z,1001.59
2023-04-01T00:40:09.979Z,1001.68
2023-04-01T00:41:09.960Z,1001.72
2023-04-01T00:42:09.988Z,1001.68
2023-04-01T00:43:09.970Z,1001.64
2023-04-01T00:44:09.971Z,1001.64
2023-04-01T00:45:09.961Z,1001.62
2023-04-01T00:46:09.989Z,1001.61
2023-04-01T00:47:10.030Z,1001.65
2023-04-01T00:48:10.032Z,1001.65
2023-04-01T00:49:09.975Z,1001.63
2023-04-01T00:50:09.973Z,1001.63
2023-04-01T00:51:09.987Z,1001.62
2023-04-01T00:52:10.001Z,1001.61
2023-04-01T00:53:09.970Z,1001.63
2023-04-01T00:54:09.980Z,1001.66
2023-04-01T00:55:09.970Z,1001.61
2023-04-01T00:56:09.991Z,1001.62
2023-04-01T00:57:10.026Z,1001.61
2023-04-01T00:58:09.974Z,1001.63
2023-04-01T00:59:09.972Z,1001.6
2023-04-01T01:00:09.969Z,1001.58
2023-04-01T01:01:10.041Z,1001.64
2023-04-01T01:02:10.002Z,1001.65
2023-04-01T01:03:09.996Z,1001.64
2023-04-01T01:04:09.961Z,1001.65
2023-04-01T01:05:09.977Z,1001.59
2023-04-01T01:06:09.983Z,1001.64
2023-04-01T01:07:10.022Z,1001.64
2023-04-01T01:08:09.972Z,1001.67
2023-04-01T01:09:09.983Z,1001.67
2023-04-01T01:10:09.968Z,1001.64
2023-04-01T01:11:10.382Z,1001.66
2023-04-01T01:12:09.996Z,1001.68
2023-04-01T01:13:09.976Z,1001.66
2023-04-01T01:14:09.976Z,1001.66
2023-04-01T01:15:09.972Z,1001.68
2023-04-01T01:16:10.012Z,1001.65
2023-04-01T01:17:09.981Z,1001.65
2023-04-01T01:18:10.007Z,1001.71
2023-04-01T01:19:09.971Z,1001.64
2023-04-01T01:20:19.246Z,1001.68
2023-04-01T01:21:09.991Z,1001.66
2023-04-01T01:22:09.986Z,1001.67
2023-04-01T01:23:09.971Z,1001.64
2023-04-01T01:24:09.973Z,1001.65
2023-04-01T01:25:09.977Z,1001.64
2023-04-01T01:26:09.971Z,1001.7
2023-04-01T01:27:09.991Z,1001.65
2023-04-01T01:28:09.971Z,1001.68
2023-04-01T01:29:09.973Z,1001.67
2023-04-01T01:30:09.977Z,1001.61
2023-04-01T01:31:10.050Z,1001.62
2023-04-01T01:32:09.985Z,1001.65
2023-04-01T01:33:09.997Z,1001.63
2023-04-01T01:34:09.973Z,1001.63
2023-04-01T01:35:09.984Z,1001.61
2023-04-01T01:36:10.022Z,1001.61
2023-04-01T01:37:09.991Z,1001.62
2023-04-01T01:38:09.973Z,1001.62
2023-04-01T01:39:09.970Z,1001.66
2023-04-01T01:40:09.970Z,1001.61
2023-04-01T01:41:09.964Z,1001.59
2023-04-01T01:42:09.985Z,1001.61
2023-04-01T01:43:09.970Z,1001.61
2023-04-01T01:44:09.964Z,1001.6
2023-04-01T01:45:09.965Z,1001.64
2023-04-01T01:46:10.004Z,1001.63
2023-04-01T01:47:09.984Z,1001.6
2023-04-01T01:48:10.014Z,1001.66
2023-04-01T01:49:09.968Z,1001.59
2023-04-01T01:50:09.963Z,1001.65
2023-04-01T01:51:09.983Z,1001.64
2023-04-01T01:52:09.977Z,1001.63
2023-04-01T01:53:09.973Z,1001.63
2023-04-01T01:54:09.967Z,1001.64
2023-04-01T01:55:09.968Z,1001.67
2023-04-01T01:56:09.971Z,1001.65
2023-04-01T01:57:10.062Z,1001.67
2023-04-01T01:58:09.959Z,1001.66
2023-04-01T01:59:09.958Z,1001.62
2023-04-01T02:00:09.962Z,1001.64
2023-04-01T02:01:10.012Z,1001.65
2023-04-01T02:02:09.967Z,1001.64
2023-04-01T02:03:09.968Z,1001.64
2023-04-01T02:04:09.979Z,1001.62
2023-04-01T02:05:09.966Z,1001.64
2023-04-01T02:06:09.990Z,1001.6
2023-04-01T02:07:09.985Z,1001.6
2023-04-01T02:08:09.959Z,1001.6
2023-04-01T02:09:09.961Z,1001.62
2023-04-01T02:10:09.974Z,1001.61
2023-04-01T02:11:09.955Z,1001.62
2023-04-01T02:12:09.979Z,1001.63
2023-04-01T02:13:09.968Z,1001.61
2023-04-01T02:14:09.958Z,1001.66
2023-04-01T02:15:09.972Z,1001.6
2023-04-01T02:16:10.003Z,1001.59
2023-04-01T02:17:09.983Z,1001.6
2023-04-01T02:18:09.998Z,1001.58
2023-04-01T02:19:09.960Z,1001.56
2023-04-01T02:20:09.954Z,1001.57
2023-04-01T02:21:09.981Z,1001.56
2023-04-01T02:22:09.980Z,1001.56
2023-04-01T02:23:09.957Z,1001.56
2023-04-01T02:24:09.965Z,1001.56
2023-04-01T02:25:09.953Z,1001.6
2023-04-01T02:26:09.963Z,1001.57
2023-04-01T02:27:09.974Z,1001.58
2023-04-01T02:28:09.969Z,1001.57
2023-04-01T02:29:09.961Z,1001.57
2023-04-01T02:30:09.954Z,1001.6
2023-04-01T02:31:09.988Z,1001.65
2023-04-01T02:32:09.973Z,1001.61
2023-04-01T02:33:10.039Z,1001.62
2023-04-01T02:34:09.949Z,1001.6
2023-04-01T02:35:09.966Z,1001.63
2023-04-01T02:36:10.016Z,1001.58
2023-04-01T02:37:09.982Z,1001.63
2023-04-01T02:38:09.960Z,1001.6
2023-04-01T02:39:09.961Z,1001.64
2023-04-01T02:40:09.951Z,1001.6
2023-04-01T02:41:09.954Z,1001.61
2023-04-01T02:42:09.974Z,1001.64
2023-04-01T02:43:09.962Z,1001.63
2023-04-01T02:44:09.969Z,1001.65
2023-04-01T02:45:09.965Z,1001.64
2023-04-01T02:46:10.058Z,1001.65
2023-04-01T02:47:10.036Z,1001.67
2023-04-01T02:48:09.965Z,1001.73
2023-04-01T02:49:09.977Z,1001.71
2023-04-01T02:50:09.965Z,1001.75
2023-04-01T02:51:09.974Z,1001.68
2023-04-01T02:52:09.983Z,1001.77
2023-04-01T02:53:09.972Z,1001.75
2023-04-01T02:54:09.963Z,1001.73
2023-04-01T02:55:09.975Z,1001.73
2023-04-01T02:56:09.959Z,1001.76
2023-04-01T02:57:10.184Z,1001.78
2023-04-01T02:58:09.971Z,1001.76
2023-04-01T02:59:09.970Z,1001.78
2023-04-01T03:00:09.962Z,1001.78
2023-04-01T03:01:10.008Z,1001.74
2023-04-01T03:02:09.994Z,1001.75
2023-04-01T03:03:10.062Z,1001.79
2023-04-01T03:04:09.962Z,1001.75
2023-04-01T03:05:09.963Z,1001.74
2023-04-01T03:06:09.996Z,1001.77
2023-04-01T03:07:09.960Z,1001.78
2023-04-01T03:08:09.969Z,1001.78
2023-04-01T03:09:09.962Z,1001.76
2023-04-01T03:10:09.969Z,1001.73
2023-04-01T03:11:09.962Z,1001.72
2023-04-01T03:12:09.954Z,1001.78
2023-04-01T03:13:09.989Z,1001.74
2023-04-01T03:14:09.966Z,1001.77
2023-04-01T03:15:11.292Z,1001.74
2023-04-01T03:16:10.025Z,1001.73
2023-04-01T03:17:09.990Z,1001.74
2023-04-01T03:18:09.969Z,1001.72
2023-04-01T03:19:09.967Z,1001.77
2023-04-01T03:20:09.959Z,1001.77
2023-04-01T03:21:09.986Z,1001.73
2023-04-01T03:22:09.959Z,1001.78
2023-04-01T03:23:09.967Z,1001.84
2023-04-01T03:24:09.956Z,1001.72
2023-04-01T03:25:09.963Z,1001.76
2023-04-01T03:26:09.962Z,1001.81
2023-04-01T03:27:09.958Z,1001.85
2023-04-01T03:28:09.974Z,1001.87
2023-04-01T03:29:09.964Z,1001.82
2023-04-01T03:30:09.991Z,1001.84
2023-04-01T03:31:09.960Z,1001.86
2023-04-01T03:32:09.961Z,1001.89
2023-04-01T03:33:09.978Z,1001.9
2023-04-01T03:34:09.957Z,1001.87
2023-04-01T03:35:09.950Z,1001.95
2023-04-01T03:36:10.021Z,1001.91
2023-04-01T03:37:09.962Z,1001.96
2023-04-01T03:38:09.976Z,1001.96
2023-04-01T03:39:09.958Z,1001.96
2023-04-01T03:40:09.957Z,1001.92
2023-04-01T03:41:09.955Z,1002
2023-04-01T03:42:09.962Z,1001.97
2023-04-01T03:43:10.015Z,1001.92
2023-04-01T03:44:09.956Z,1001.95
2023-04-01T03:45:09.954Z,1001.99
2023-04-01T03:46:09.988Z,1001.98
2023-04-01T03:47:09.950Z,1002
2023-04-01T03:48:10.002Z,1001.99
2023-04-01T03:49:09.960Z,1002.03
2023-04-01T03:50:09.971Z,1002
2023-04-01T03:51:09.970Z,1002.03
2023-04-01T03:52:09.960Z,1002.09
2023-04-01T03:53:09.981Z,1002.04
2023-04-01T03:54:09.964Z,1002.05
2023-04-01T03:55:09.959Z,1002.07
2023-04-01T03:56:09.958Z,1002.07
2023-04-01T03:57:10.023Z,1002.17
2023-04-01T03:58:10.139Z,1002.1
2023-04-01T03:59:10.013Z,1002.13
2023-04-01T04:00:09.976Z,1002.15
2023-04-01T04:01:09.950Z,1002.21
2023-04-01T04:02:10.010Z,1002.19
2023-04-01T04:03:10.107Z,1002.22
2023-04-01T04:04:09.985Z,1002.23
2023-04-01T04:05:09.957Z,1002.27
2023-04-01T04:06:10.000Z,1002.26
2023-04-01T04:07:09.972Z,1002.27
2023-04-01T04:08:09.961Z,1002.27
2023-04-01T04:09:09.974Z,1002.3
2023-04-01T04:10:09.965Z,1002.32
2023-04-01T04:11:09.956Z,1002.31
2023-04-01T04:12:09.960Z,1002.29
2023-04-01T04:13:09.979Z,1002.37
2023-04-01T04:14:09.971Z,1002.29
2023-04-01T04:15:09.957Z,1002.3
2023-04-01T04:16:10.075Z,1002.33
2023-04-01T04:17:09.964Z,1002.27
2023-04-01T04:18:09.960Z,1002.34
2023-04-01T04:19:09.961Z,1002.33
2023-04-01T04:20:09.958Z,1002.31
2023-04-01T04:21:09.975Z,1002.34
2023-04-01T04:22:09.967Z,1002.36
2023-04-01T04:23:09.963Z,1002.43
2023-04-01T04:24:09.970Z,1002.41
2023-04-01T04:25:09.967Z,1002.41
2023-04-01T04:26:09.972Z,1002.42
2023-04-01T04:27:09.982Z,1002.44
2023-04-01T04:28:09.962Z,1002.42
2023-04-01T04:29:09.995Z,1002.46
2023-04-01T04:30:09.947Z,1002.44
2023-04-01T04:31:10.004Z,1002.45
2023-04-01T04:32:09.961Z,1002.46
2023-04-01T04:33:09.979Z,1002.48
2023-04-01T04:34:09.981Z,1002.45
2023-04-01T04:35:09.952Z,1002.45
2023-04-01T04:36:10.002Z,1002.46
2023-04-01T04:37:09.967Z,1002.48
2023-04-01T04:38:09.960Z,1002.46
2023-04-01T04:39:09.980Z,1002.51
2023-04-01T04:40:09.958Z,1002.51
2023-04-01T04:41:09.967Z,1002.52
2023-04-01T04:42:09.971Z,1002.53
2023-04-01T04:43:09.961Z,1002.59
2023-04-01T04:44:09.975Z,1002.56
2023-04-01T04:45:09.965Z,1002.57
2023-04-01T04:46:09.959Z,1002.6
2023-04-01T04:47:10.016Z,1002.56
2023-04-01T04:48:10.002Z,1002.55
2023-04-01T04:49:09.975Z,1002.6
2023-04-01T04:50:09.953Z,1002.54
2023-04-01T04:51:09.974Z,1002.53
2023-04-01T04:52:09.959Z,1002.55
2023-04-01T04:53:09.953Z,1002.56
2023-04-01T04:54:09.982Z,1002.56
2023-04-01T04:55:09.964Z,1002.63
2023-04-01T04:56:09.973Z,1002.55
2023-04-01T04:57:10.005Z,1002.61
2023-04-01T04:58:09.967Z,1002.64
2023-04-01T04:59:09.983Z,1002.53
2023-04-01T05:00:09.946Z,1002.56
2023-04-01T05:01:09.995Z,1002.6
2023-04-01T05:02:10.000Z,1002.56
2023-04-01T05:03:10.011Z,1002.6
2023-04-01T05:04:09.977Z,1002.58
2023-04-01T05:05:09.997Z,1002.6
2023-04-01T05:06:09.980Z,1002.61
2023-04-01T05:07:09.959Z,1002.6
2023-04-01T05:08:09.954Z,1002.6
2023-04-01T05:09:09.979Z,1002.63
2023-04-01T05:10:09.960Z,1002.68
2023-04-01T05:11:13.588Z,1002.67
2023-04-01T05:12:09.962Z,1002.67
2023-04-01T05:13:09.960Z,1002.68
2023-04-01T05:14:09.976Z,1002.67
2023-04-01T05:15:09.986Z,1002.68
2023-04-01T05:16:09.957Z,1002.66
2023-04-01T05:17:09.977Z,1002.65
2023-04-01T05:18:10.021Z,1002.68
2023-04-01T05:19:09.968Z,1002.69
2023-04-01T05:20:09.980Z,1002.66
2023-04-01T05:21:09.980Z,1002.65
2023-04-01T05:22:09.958Z,1002.64
2023-04-01T05:23:09.959Z,1002.67
2023-04-01T05:24:09.973Z,1002.65
2023-04-01T05:25:09.951Z,1002.63
2023-04-01T05:26:09.953Z,1002.64
2023-04-01T05:27:09.956Z,1002.65
2023-04-01T05:28:09.998Z,1002.66
2023-04-01T05:29:10.004Z,1002.65
2023-04-01T05:30:09.946Z,1002.66
2023-04-01T05:31:10.043Z,1002.71
2023-04-01T05:32:09.959Z,1002.67
2023-04-01T05:33:10.013Z,1002.68
2023-04-01T05:34:09.979Z,1002.72
2023-04-01T05:35:09.953Z,1002.68
2023-04-01T05:36:10.022Z,1002.68
2023-04-01T05:37:09.951Z,1002.7
2023-04-01T05:38:09.953Z,1002.73
2023-04-01T05:39:09.990Z,1002.75
2023-04-01T05:40:09.948Z,1002.79
2023-04-01T05:41:09.965Z,1002.8
2023-04-01T05:42:09.980Z,1002.72
2023-04-01T05:43:09.957Z,1002.75
2023-04-01T05:44:09.972Z,1002.72
2023-04-01T05:45:09.984Z,1002.75
2023-04-01T05:46:09.974Z,1002.71
2023-04-01T05:47:09.958Z,1002.74
2023-04-01T05:48:09.961Z,1002.78
2023-04-01T05:49:09.970Z,1002.8
2023-04-01T05:50:09.952Z,1002.78
2023-04-01T05:51:09.977Z,1002.82
2023-04-01T05:52:09.962Z,1002.78
2023-04-01T05:53:09.970Z,1002.79
2023-04-01T05:54:09.974Z,1002.78
2023-04-01T05:55:09.975Z,1002.79
2023-04-01T05:56:09.959Z,1002.83
2023-04-01T05:57:10.012Z,1002.79
2023-04-01T05:58:09.964Z,1002.76
2023-04-01T05:59:09.985Z,1002.79
2023-04-01T06:00:09.947Z,1002.79
2023-04-01T06:01:14.134Z,1002.74
2023-04-01T06:02:09.959Z,1002.84
2023-04-01T06:03:10.036Z,1002.82
2023-04-01T06:04:10.141Z,1002.8
2023-04-01T06:05:09.963Z,1002.82
2023-04-01T06:06:09.968Z,1002.83
2023-04-01T06:07:09.944Z,1002.88
2023-04-01T06:08:09.971Z,1002.88
2023-04-01T06:09:09.971Z,1002.89
2023-04-01T06:10:09.954Z,1002.83
2023-04-01T06:11:09.957Z,1002.88
2023-04-01T06:12:09.944Z,1002.88
2023-04-01T06:13:09.953Z,1002.88
2023-04-01T06:14:09.971Z,1002.92
2023-04-01T06:15:09.956Z,1002.91
2023-04-01T06:16:10.040Z,1002.94
2023-04-01T06:17:09.956Z,1002.92
2023-04-01T06:18:09.972Z,1002.92
2023-04-01T06:19:09.967Z,1002.93
2023-04-01T06:20:09.947Z,1002.98
2023-04-01T06:21:09.976Z,1002.95
2023-04-01T06:22:09.951Z,1002.98
2023-04-01T06:23:09.957Z,1003.02
2023-04-01T06:24:09.966Z,1003.05
2023-04-01T06:25:09.959Z,1003.04
2023-04-01T06:26:09.954Z,1003.06
2023-04-01T06:27:09.951Z,1003
2023-04-01T06:28:09.960Z,1003.05
2023-04-01T06:29:09.970Z,1003.07
2023-04-01T06:30:09.943Z,1003.11
2023-04-01T06:31:10.038Z,1003.05
2023-04-01T06:32:10.018Z,1003.12
2023-04-01T06:33:09.997Z,1003.12
2023-04-01T06:34:09.973Z,1003.14
2023-04-01T06:35:09.960Z,1003.12
2023-04-01T06:36:10.053Z,1003.13
2023-04-01T06:37:09.962Z,1003.08
2023-04-01T06:38:09.959Z,1003.12
2023-04-01T06:39:11.265Z,1003.06
2023-04-01T06:40:09.947Z,1003.13
2023-04-01T06:41:09.951Z,1003.13
2023-04-01T06:42:09.957Z,1003.08
2023-04-01T06:43:09.968Z,1003.12
2023-04-01T06:44:09.979Z,1003.14
2023-04-01T06:45:09.966Z,1003.15
2023-04-01T06:46:10.004Z,1003.07
2023-04-01T06:47:09.964Z,1003.11
2023-04-01T06:48:10.003Z,1003.08
2023-04-01T06:49:09.973Z,1003.16
2023-04-01T06:50:09.960Z,1003.16
2023-04-01T06:51:09.979Z,1003.17
2023-04-01T06:52:09.956Z,1003.19
2023-04-01T06:53:09.956Z,1003.18
2023-04-01T06:54:09.972Z,1003.17
2023-04-01T06:55:09.959Z,1003.12
2023-04-01T06:56:09.970Z,1003.14
2023-04-01T06:57:09.964Z,1003.14
2023-04-01T06:58:09.968Z,1003.14
2023-04-01T06:59:09.978Z,1003.12
2023-04-01T07:00:09.976Z,1003.16
2023-04-01T07:01:09.986Z,1003.07
2023-04-01T07:02:09.958Z,1003.11
2023-04-01T07:03:09.971Z,1003.14
2023-04-01T07:04:10.113Z,1003.1
2023-04-01T07:05:09.960Z,1003.07
2023-04-01T07:06:09.972Z,1003.08
2023-04-01T07:07:09.970Z,1003.11
2023-04-01T07:08:09.954Z,1003.11
2023-04-01T07:09:09.976Z,1003.13
2023-04-01T07:10:09.949Z,1003.15
2023-04-01T07:11:09.957Z,1003.12
2023-04-01T07:12:09.956Z,1003.16
2023-04-01T07:13:09.952Z,1003.15
2023-04-01T07:14:09.968Z,1003.14
2023-04-01T07:15:09.942Z,1003.12
2023-04-01T07:16:09.945Z,1003.15
2023-04-01T07:17:09.988Z,1003.2
2023-04-01T07:18:10.079Z,1003.21
2023-04-01T07:19:09.975Z,1003.3
2023-04-01T07:20:09.953Z,1003.21
2023-04-01T07:21:09.973Z,1003.23
2023-04-01T07:22:09.949Z,1003.26
2023-04-01T07:23:09.950Z,1003.29
2023-04-01T07:24:09.957Z,1003.34
2023-04-01T07:25:09.949Z,1003.27
2023-04-01T07:26:09.948Z,1003.27
2023-04-01T07:27:09.959Z,1003.26
2023-04-01T07:28:09.963Z,1003.25
2023-04-01T07:29:09.966Z,1003.3
2023-04-01T07:30:09.946Z,1003.25
2023-04-01T07:31:10.008Z,1003.29
2023-04-01T07:32:09.965Z,1003.3
2023-04-01T07:33:10.024Z,1003.29
2023-04-01T07:34:09.970Z,1003.31
2023-04-01T07:35:09.963Z,1003.29
2023-04-01T07:36:09.992Z,1003.29
2023-04-01T07:37:09.951Z,1003.25
2023-04-01T07:38:09.962Z,1003.3
2023-04-01T07:39:09.972Z,1003.28
2023-04-01T07:40:09.940Z,1003.25
2023-04-01T07:41:09.953Z,1003.28
2023-04-01T07:42:09.958Z,1003.29
2023-04-01T07:43:09.957Z,1003.26
2023-04-01T07:44:09.965Z,1003.25
2023-04-01T07:45:09.950Z,1003.28
2023-04-01T07:46:10.004Z,1003.26
2023-04-01T07:47:09.954Z,1003.27
2023-04-01T07:48:10.005Z,1003.28
2023-04-01T07:49:09.980Z,1003.28
2023-04-01T07:50:09.950Z,1003.34
2023-04-01T07:51:09.969Z,1003.29
2023-04-01T07:52:09.979Z,1003.3
2023-04-01T07:53:09.953Z,1003.35
2023-04-01T07:54:09.980Z,1003.33
2023-04-01T07:55:09.954Z,1003.34
2023-04-01T07:56:10.829Z,1003.33
2023-04-01T07:57:09.958Z,1003.36
2023-04-01T07:58:09.948Z,1003.41
2023-04-01T07:59:09.977Z,1003.41
2023-04-01T08:00:09.948Z,1003.43
2023-04-01T08:01:09.964Z,1003.43
2023-04-01T08:02:09.958Z,1003.47
2023-04-01T08:03:10.041Z,1003.48
2023-04-01T08:04:10.181Z,1003.53
2023-04-01T08:05:09.962Z,1003.53
2023-04-01T08:06:09.971Z,1003.51
2023-04-01T08:07:09.955Z,1003.54
2023-04-01T08:08:09.956Z,1003.54
2023-04-01T08:09:09.975Z,1003.6
2023-04-01T08:10:09.956Z,1003.59
2023-04-01T08:11:09.956Z,1003.59
2023-04-01T08:12:09.962Z,1003.54
2023-04-01T08:13:09.958Z,1003.57
2023-04-01T08:14:09.963Z,1003.56
2023-04-01T08:15:09.972Z,1003.54
2023-04-01T08:16:10.029Z,1003.59
2023-04-01T08:17:09.946Z,1003.6
2023-04-01T08:18:09.950Z,1003.57
2023-04-01T08:19:09.965Z,1003.63
2023-04-01T08:20:09.950Z,1003.62
2023-04-01T08:21:09.965Z,1003.62
2023-04-01T08:22:09.943Z,1003.6
2023-04-01T08:23:09.949Z,1003.61
2023-04-01T08:24:09.955Z,1003.63
2023-04-01T08:25:09.947Z,1003.62
2023-04-01T08:26:09.958Z,1003.65
2023-04-01T08:27:09.940Z,1003.61
2023-04-01T08:28:09.945Z,1003.61
2023-04-01T08:29:09.983Z,1003.63
2023-04-01T08:30:10.497Z,1003.65
2023-04-01T08:31:09.954Z,1003.63
2023-04-01T08:32:09.989Z,1003.66
2023-04-01T08:33:09.971Z,1003.65
2023-04-01T08:34:09.968Z,1003.67
2023-04-01T08:35:09.935Z,1003.65
2023-04-01T08:36:09.979Z,1003.68
2023-04-01T08:37:09.952Z,1003.7
2023-04-01T08:38:09.937Z,1003.66
2023-04-01T08:39:09.964Z,1003.72
2023-04-01T08:40:09.946Z,1003.74
2023-04-01T08:41:09.954Z,1003.71
2023-04-01T08:42:09.941Z,1003.68
2023-04-01T08:43:09.941Z,1003.72
2023-04-01T08:44:09.956Z,1003.71
2023-04-01T08:45:10.796Z,1003.7
2023-04-01T08:46:09.967Z,1003.73
2023-04-01T08:47:09.945Z,1003.76
2023-04-01T08:48:10.038Z,1003.74
2023-04-01T08:49:09.964Z,1003.74
2023-04-01T08:50:09.944Z,1003.76
2023-04-01T08:51:09.967Z,1003.75
2023-04-01T08:52:09.960Z,1003.81
2023-04-01T08:53:09.948Z,1003.75
2023-04-01T08:54:09.956Z,1003.75
2023-04-01T08:55:09.948Z,1003.76
2023-04-01T08:56:09.948Z,1003.75
2023-04-01T08:57:09.992Z,1003.75
2023-04-01T08:58:09.942Z,1003.76
2023-04-01T08:59:09.961Z,1003.75
2023-04-01T09:00:09.938Z,1003.72
2023-04-01T09:01:09.948Z,1003.74
2023-04-01T09:02:10.000Z,1003.75
2023-04-01T09:03:10.056Z,1003.75
2023-04-01T09:04:09.997Z,1003.83
2023-04-01T09:05:09.943Z,1003.78
2023-04-01T09:06:09.964Z,1003.74
2023-04-01T09:07:10.895Z,1003.75
2023-04-01T09:08:09.950Z,1003.75
2023-04-01T09:09:09.969Z,1003.75
2023-04-01T09:10:09.947Z,1003.78
2023-04-01T09:11:09.945Z,1003.76
2023-04-01T09:12:09.996Z,1003.74
2023-04-01T09:13:09.947Z,1003.75
2023-04-01T09:14:09.967Z,1003.74
2023-04-01T09:15:09.957Z,1003.76
2023-04-01T09:16:10.005Z,1003.75
2023-04-01T09:17:09.954Z,1003.76
2023-04-01T09:18:10.010Z,1003.72
2023-04-01T09:19:10.071Z,1003.73
2023-04-01T09:20:09.986Z,1003.7
2023-04-01T09:21:09.979Z,1003.77
2023-04-01T09:22:09.954Z,1003.7
2023-04-01T09:23:09.953Z,1003.73
2023-04-01T09:24:09.974Z,1003.69
2023-04-01T09:25:09.964Z,1003.73
2023-04-01T09:26:09.956Z,1003.7
2023-04-01T09:27:09.963Z,1003.76
2023-04-01T09:28:09.962Z,1003.76
2023-04-01T09:29:09.987Z,1003.72
2023-04-01T09:30:09.946Z,1003.82
2023-04-01T09:31:09.970Z,1003.96
2023-04-01T09:32:09.958Z,1003.84
2023-04-01T09:33:09.961Z,1003.84
2023-04-01T09:34:09.966Z,1003.85
2023-04-01T09:35:09.962Z,1003.82
2023-04-01T09:36:10.018Z,1003.82
2023-04-01T09:37:09.960Z,1003.85
2023-04-01T09:38:09.970Z,1003.84
2023-04-01T09:39:09.968Z,1003.86
2023-04-01T09:40:09.954Z,1003.85
2023-04-01T09:41:09.952Z,1003.88
2023-04-01T09:42:09.955Z,1003.84
2023-04-01T09:43:09.957Z,1003.81
2023-04-01T09:44:09.978Z,1003.81
2023-04-01T09:45:09.955Z,1003.8
2023-04-01T09:46:09.999Z,1003.89
2023-04-01T09:47:09.960Z,1003.84
2023-04-01T09:48:09.990Z,1003.81
2023-04-01T09:49:09.979Z,1003.88
2023-04-01T09:50:09.959Z,1003.76
2023-04-01T09:51:09.971Z,1003.85
2023-04-01T09:52:09.956Z,1003.89
2023-04-01T09:53:09.951Z,1003.82
2023-04-01T09:54:09.975Z,1003.87
2023-04-01T09:55:09.954Z,1003.84
2023-04-01T09:56:09.967Z,1003.86
2023-04-01T09:57:10.036Z,1003.83
2023-04-01T09:58:09.958Z,1003.85
2023-04-01T09:59:09.983Z,1003.85
2023-04-01T10:00:09.949Z,1003.89
2023-04-01T10:01:09.962Z,1003.87
2023-04-01T10:02:10.208Z,1003.89
2023-04-01T10:03:10.028Z,1003.83
2023-04-01T10:04:09.970Z,1003.84
2023-04-01T10:05:10.003Z,1003.85
2023-04-01T10:06:10.030Z,1003.81
2023-04-01T10:07:09.954Z,1003.83
2023-04-01T10:08:09.949Z,1003.83
2023-04-01T10:09:09.968Z,1003.9
2023-04-01T10:10:09.949Z,1003.86
2023-04-01T10:11:09.950Z,1003.89
2023-04-01T10:12:09.954Z,1003.89
2023-04-01T10:13:09.953Z,1003.92
2023-04-01T10:14:09.997Z,1003.92
2023-04-01T10:15:09.958Z,1003.92
2023-04-01T10:16:09.986Z,1003.92
2023-04-01T10:17:09.962Z,1003.97
2023-04-01T10:18:09.953Z,1003.97
2023-04-01T10:19:09.976Z,1003.98
2023-04-01T10:20:09.986Z,1003.98
2023-04-01T10:21:09.983Z,1003.98
2023-04-01T10:22:09.957Z,1003.99
2023-04-01T10:23:09.951Z,1004.04
2023-04-01T10:24:09.984Z,1003.99
2023-04-01T10:25:09.954Z,1004.03
2023-04-01T10:26:09.964Z,1003.95
2023-04-01T10:27:09.948Z,1003.98
2023-04-01T10:28:09.956Z,1003.98
2023-04-01T10:29:09.996Z,1003.96
2023-04-01T10:30:09.947Z,1003.94
2023-04-01T10:31:09.948Z,1003.91
2023-04-01T10:32:09.979Z,1003.88
2023-04-01T10:33:09.982Z,1003.89
2023-04-01T10:34:09.964Z,1003.86
2023-04-01T10:35:09.955Z,1003.87
2023-04-01T10:36:09.993Z,1003.87
2023-04-01T10:37:09.953Z,1003.86
2023-04-01T10:38:09.953Z,1003.85
2023-04-01T10:39:09.961Z,1003.91
2023-04-01T10:40:09.946Z,1003.89
2023-04-01T10:41:09.944Z,1003.91
2023-04-01T10:42:09.947Z,1003.86
2023-04-01T10:43:09.955Z,1003.89
2023-04-01T10:44:09.966Z,1003.87
2023-04-01T10:45:09.950Z,1003.88
2023-04-01T10:46:09.986Z,1003.89
2023-04-01T10:47:09.950Z,1003.88
2023-04-01T10:48:09.951Z,1003.86
2023-04-01T10:49:09.966Z,1003.89
2023-04-01T10:50:09.941Z,1003.9
2023-04-01T10:51:09.968Z,1003.84
2023-04-01T10:52:09.950Z,1003.81
2023-04-01T10:53:09.943Z,1003.92
2023-04-01T10:54:09.958Z,1003.92
2023-04-01T10:55:09.951Z,1003.98
2023-04-01T10:56:09.946Z,1003.97
2023-04-01T10:57:09.979Z,1003.95
2023-04-01T10:58:09.987Z,1003.95
2023-04-01T10:59:10.008Z,1003.97
2023-04-01T11:00:09.950Z,1003.99
2023-04-01T11:01:09.995Z,1004
2023-04-01T11:02:11.868Z,1003.98
2023-04-01T11:03:10.093Z,1003.94
2023-04-01T11:04:09.969Z,1003.98
2023-04-01T11:05:09.959Z,1003.94
2023-04-01T11:06:09.969Z,1003.93
2023-04-01T11:07:09.961Z,1003.85
2023-04-01T11:08:09.965Z,1003.85
2023-04-01T11:09:09.968Z,1003.83
2023-04-01T11:10:09.941Z,1003.78
2023-04-01T11:11:09.953Z,1003.84
2023-04-01T11:12:09.950Z,1003.86
2023-04-01T11:13:09.947Z,1003.88
2023-04-01T11:14:09.978Z,1003.87
2023-04-01T11:15:09.947Z,1003.8
2023-04-01T11:16:09.995Z,1003.87
2023-04-01T11:17:09.949Z,1003.88
2023-04-01T11:18:10.089Z,1003.85
2023-04-01T11:19:09.961Z,1003.82
2023-04-01T11:20:09.945Z,1003.87
2023-04-01T11:21:09.964Z,1003.82
2023-04-01T11:22:09.948Z,1003.84
2023-04-01T11:23:09.948Z,1003.82
2023-04-01T11:24:09.966Z,1003.83
2023-04-01T11:25:09.963Z,1003.85
2023-04-01T11:26:09.959Z,1003.84
2023-04-01T11:27:09.995Z,1003.83
2023-04-01T11:28:09.951Z,1003.84
2023-04-01T11:29:09.981Z,1003.85
2023-04-01T11:30:09.948Z,1003.84
2023-04-01T11:31:09.973Z,1003.91
2023-04-01T11:32:09.961Z,1003.93
2023-04-01T11:33:10.047Z,1003.92
2023-04-01T11:34:09.988Z,1003.91
2023-04-01T11:35:09.973Z,1003.88
2023-04-01T11:36:09.980Z,1003.9
2023-04-01T11:37:09.958Z,1003.9
2023-04-01T11:38:09.978Z,1003.97
2023-04-01T11:39:09.973Z,1003.89
2023-04-01T11:40:09.948Z,1003.96
2023-04-01T11:41:09.955Z,1003.93
2023-04-01T11:42:09.961Z,1004
2023-04-01T11:43:11.635Z,1003.99
2023-04-01T11:44:09.977Z,1004.06
2023-04-01T11:45:09.961Z,1004.01
2023-04-01T11:46:10.048Z,1004.01
2023-04-01T11:47:09.960Z,1004.01
2023-04-01T11:48:09.982Z,1004.05
2023-04-01T11:49:09.983Z,1004.11
2023-04-01T11:50:09.965Z,1004.12
2023-04-01T11:51:09.980Z,1004.12
2023-04-01T11:52:09.960Z,1004.11
2023-04-01T11:53:09.953Z,1004.15
2023-04-01T11:54:09.977Z,1004.18
2023-04-01T11:55:09.966Z,1004.16
2023-04-01T11:56:09.969Z,1004.17
2023-04-01T11:57:09.993Z,1004.19
2023-04-01T11:58:09.962Z,1004.19
2023-04-01T11:59:09.966Z,1004.19
2023-04-01T12:00:09.947Z,1004.18
2023-04-01T12:01:09.958Z,1004.17
2023-04-01T12:02:09.978Z,1004.17
2023-04-01T12:03:10.050Z,1004.17
2023-04-01T12:04:10.152Z,1004.15
2023-04-01T12:05:09.960Z,1004.06
2023-04-01T12:06:09.977Z,1004.06
2023-04-01T12:07:09.962Z,1004.04
2023-04-01T12:08:09.977Z,1004.04